• Join FlightAware (Why Join?)
  • Login
  • US Flag 
04:02PM EST


 

Airport Tracker/Info


-or-


 

Live Flight TrackerFlight Track Log ✈ SWA718 ✈ 16-Apr-2014 ✈ KOKC - KHOU

Flight Track Log - Related Links

Times and Time Zones

All times are in EDT time to prevent confusion due to time zone crossing. See the SWA718 flight status page for this flight to view local times or setup timezone preferences in your user account.

Time Position Orientation Groundspeed Altitude Reporting Facility
EDT Latitude Longitude Course Direction KTS MPH feet Rate Location/Type
09:40AM 35.3789 -97.5906 174° South 141 162 2,100  Level Fort Worth Center
09:41AM 35.3256 -97.5842 174° South 194 223 4,200 1,980 Climbing Fort Worth Center
09:42AM 35.3039 -97.5814 174° South 198 228 5,000 2,580 Climbing Fort Worth Center
09:42AM 35.2681 -97.5786 176° South 235 270 6,600 2,700 Climbing Fort Worth Center
09:43AM 35.2397 -97.5761 176° South 228 262 7,800 2,160 Climbing Fort Worth Center
09:44AM 35.1586 -97.5681 175° South 276 318 9,900 1,440 Climbing Fort Worth Center
09:45AM 35.0853 -97.5631 177° South 300 345 10,800 1,680 Climbing Fort Worth Center
09:46AM 34.9692 -97.5525 176° South 344 396 13,500 2,280 Climbing Fort Worth Center
09:47AM 34.8728 -97.5172 163° South 364 419 15,600 1,920 Climbing Fort Worth Center
09:48AM 34.7767 -97.4672 157° South 371 427 17,500 1,680 Climbing Fort Worth Center
09:49AM 34.6783 -97.4147 156° South 383 441 19,100 1,620 Climbing Fort Worth Center
09:50AM 34.5764 -97.3622 157° South 397 457 20,900 1,680 Climbing Fort Worth Center
09:51AM 34.4544 -97.2961 156° South 398 458 22,600 1,440 Climbing Fort Worth Center
09:52AM 34.3503 -97.2406 156° South 404 465 23,900 1,200 Climbing Fort Worth Center
09:53AM 34.2436 -97.1833 156° South 415 478 25,200 1,140 Climbing Fort Worth Center
09:54AM 34.1308 -97.1525 167° South 416 479 26,300 1,020 Climbing Fort Worth Center
09:55AM 34.0025 -97.1258 170° South 423 487 27,400 1,380 Climbing Fort Worth Center
09:56AM 33.8844 -97.1008 170° South 427 491 29,200 1,680 Climbing Fort Worth Center
09:57AM 33.7672 -97.0781 171° South 428 493 31,000 1,560 Climbing Fort Worth Center
09:58AM 33.6536 -97.0553 171° South 420 483 32,500 1,320 Climbing Fort Worth Center
09:59AM 33.5400 -97.0325 171° South 415 478 33,800 1,380 Climbing Fort Worth Center
10:00AM 33.4058 -97.0047 170° South 410 472 35,400 1,260 Climbing Fort Worth Center
10:01AM 33.2972 -96.9836 171° South 397 457 36,500 720 Climbing Fort Worth Center
10:02AM 33.1875 -96.9617 170° South 397 457 37,000 240 Climbing Fort Worth Center
10:03AM 33.0744 -96.9400 171° South 405 466 37,000  Level Fort Worth Center
10:04AM 32.9619 -96.9172 170° South 405 466 37,000  Level Fort Worth Center
10:05AM 32.8503 -96.8994 172° South 403 464 37,000  Level Fort Worth Center
10:06AM 32.7406 -96.8950 178° South 393 452 37,000  Level Fort Worth Center
10:08AM 32.6325 -96.8894 178° South 392 451 37,000  Level Fort Worth Center
10:09AM 32.5022 -96.8822 177° South 390 449 37,000  Level Fort Worth Center
10:10AM 32.3939 -96.8769 178° South 390 449 37,000  Level Fort Worth Center
10:11AM 32.2875 -96.8700 177° South 387 445 37,000  Level Fort Worth Center
10:12AM 32.1797 -96.8658 178° South 387 445 37,000  Level Fort Worth Center
10:13AM 32.0717 -96.8597 177° South 387 445 37,000  Level Fort Worth Center
10:14AM 31.9517 -96.8531 177° South 388 447 37,000  Level Fort Worth Center
10:15AM 31.8431 -96.8475 178° South 388 447 37,000  Level Fort Worth Center
10:16AM 31.7333 -96.8411 177° South 391 450 37,000  Level Fort Worth Center
10:17AM 31.6219 -96.8244 173° South 396 456 37,000  Level Fort Worth Center
10:18AM 31.4900 -96.8028 172° South 398 458 37,000  Level Fort Worth Center
10:19AM 31.3775 -96.7844 172° South 401 461 37,000 -60 Level Fort Worth Center
10:20AM 31.2661 -96.7664 172° South 403 464 36,900 -1,140 Descending Fort Worth Center
10:21AM 31.1525 -96.7489 172° South 408 470 34,700 -2,460 Descending Fort Worth Center
10:22AM 31.0394 -96.7297 172° South 408 470 31,800 -2,820 Descending Fort Worth Center
10:23AM 30.9247 -96.7119 172° South 408 470 28,900 -2,520 Descending Fort Worth Center
10:24AM 30.8125 -96.6944 172° South 408 470 26,600 -2,460 Descending Fort Worth Center
10:25AM 30.6819 -96.6736 172° South 397 457 23,900 -2,280 Descending Fort Worth Center
10:26AM 30.5778 -96.6400 164° South 402 463 21,900 -2,040 Descending Fort Worth Center
10:27AM 30.4925 -96.5414 135° Southeast 431 496 19,700 -2,220 Descending Fort Worth Center
10:28AM 30.4069 -96.4381 134° Southeast 445 512 17,400 -2,520 Descending Fort Worth Center
10:29AM 30.3239 -96.3433 135° Southeast 431 496 14,600 -2,580 Descending Fort Worth Center
10:30AM 30.2444 -96.2528 135° Southeast 416 479 12,100 -1,800 Descending Fort Worth Center
10:31AM 30.1422 -96.1725 146° Southeast 390 449 11,000 -540 Descending Fort Worth Center
10:33AM 30.0256 -96.1103 155° Southeast 373 429 10,900  Descending Houston Center
10:34AM 29.9417 -96.0642 155° Southeast 299 344 11,000  Climbing Houston Center
10:35AM 29.8672 -96.0269 157° South 285 328 11,000  Level Houston Center
10:36AM 29.7950 -95.9878 155° Southeast 295 339 11,000 -240 Level Houston Center
10:37AM 29.7011 -95.9497 161° South 303 349 10,500 -900 Descending Houston Center
10:38AM 29.6228 -95.9178 160° South 283 326 9,200 -1,380 Descending Houston Center
10:39AM 29.5636 -95.8669 143° Southeast 283 326 7,700 -1,080 Descending Houston Center
10:40AM 29.5236 -95.7947 122° Southeast 249 287 7,100 -840 Descending Houston Center
10:41AM 29.5261 -95.7272 88° East 235 270 6,100 -540 Descending Houston Center
10:42AM 29.5669 -95.6672 52° Northeast 241 277 6,100  Level Houston Center
10:43AM 29.6119 -95.6067 49° Northeast 260 299 6,100 -240 Level Houston Center
10:44AM 29.6722 -95.5481 40° Northeast 247 284 5,700 -420 Descending Houston Center
10:45AM 29.7231 -95.5119 32° Northeast 223 257 5,300 -780 Descending Houston Center
10:46AM 29.7678 -95.4728 37° Northeast 198 228 4,300 -1,020 Descending Houston Center
10:47AM 29.7608 -95.4208 99° East 160 184 3,300 -960 Descending Houston Center
10:47AM 29.7608 -95.4169 90° East 178 205 3,200 -720 Descending Houston Center
10:48AM 29.7278 -95.3789 135° Southeast 169 194 2,600 -720 Descending Houston Center
10:48AM 29.7292 -95.3781 28° Northeast 170 196 2,500 -900 Descending Houston Center
10:49AM 29.6992 -95.3439 135° Southeast 169 194 1,800 -900 Descending Houston Center
10:49AM 29.6917 -95.3336 130° Southeast 168 193 1,600 -900 Descending Houston Center
10:50AM 29.6733 -95.3133 136° Southeast 122 140 900 -1,020 Descending Houston Center
10:50AM 29.6672 -95.3056 132° Southeast 143 165 600 -900 Descending Houston Center